createdAt,value
2022-07-25T00:02:44.695Z,68.13
2022-07-25T00:13:06.328Z,67.76
2022-07-25T00:23:27.923Z,69.87
2022-07-25T00:44:22.442Z,72.34
2022-07-25T00:54:46.979Z,71.58
2022-07-25T01:05:09.130Z,72.76
2022-07-25T01:15:32.763Z,71.58
2022-07-25T01:25:54.408Z,72.11
2022-07-25T01:36:15.930Z,71.79
2022-07-25T01:46:37.530Z,72.98
2022-07-25T01:56:59.185Z,71.30
2022-07-25T02:07:20.754Z,69.48
2022-07-25T02:17:42.275Z,71.89
2022-07-25T02:28:03.986Z,71.88
2022-07-25T02:38:26.296Z,72.21
2022-07-25T02:48:47.883Z,72.77
2022-07-25T02:59:09.460Z,72.69
2022-07-25T03:09:31.046Z,70.01
2022-07-25T03:19:52.570Z,70.58
2022-07-25T03:30:14.146Z,70.73
2022-07-25T03:40:36.521Z,69.62
2022-07-25T03:50:59.476Z,68.75
2022-07-25T04:01:22.814Z,67.66
2022-07-25T04:11:44.454Z,67.47
2022-07-25T04:22:05.970Z,67.48
2022-07-25T04:32:27.524Z,67.27
2022-07-25T04:42:49.275Z,66.80
2022-07-25T04:53:10.835Z,66.55
2022-07-25T05:03:32.362Z,66.30
2022-07-25T05:13:53.917Z,66.87
2022-07-25T05:24:15.549Z,65.15
2022-07-25T05:34:37.075Z,66.78
2022-07-25T05:44:58.598Z,66.91
2022-07-25T05:55:20.193Z,65.92
2022-07-25T06:05:41.818Z,64.92
2022-07-25T06:16:03.727Z,64.91
2022-07-25T06:26:25.573Z,64.65
2022-07-25T06:36:47.079Z,64.04
2022-07-25T06:47:12.953Z,63.61
2022-07-25T06:57:35.455Z,62.89
2022-07-25T07:07:58.078Z,63.65
2022-07-25T07:18:20.869Z,63.04
2022-07-25T07:28:42.564Z,61.71
2022-07-25T07:39:04.411Z,60.24
2022-07-25T07:49:26.337Z,60.27
2022-07-25T07:59:47.952Z,59.25
2022-07-25T08:10:09.838Z,56.95
2022-07-25T08:20:39.145Z,56.42
2022-07-25T08:31:01.076Z,56.42
2022-07-25T08:41:24.853Z,54.54
2022-07-25T08:51:47.498Z,54.38
2022-07-25T09:02:14.709Z,54.67
2022-07-25T09:12:36.360Z,53.95
2022-07-25T09:23:01.040Z,52.41
2022-07-25T09:33:24.255Z,53.71
2022-07-25T09:43:45.851Z,50.54
2022-07-25T09:54:07.961Z,51.94
2022-07-25T10:05:11.704Z,51.46
2022-07-25T10:15:51.437Z,51.06
2022-07-25T10:26:16.260Z,53.01
2022-07-25T10:36:57.275Z,49.36
2022-07-25T10:47:23.207Z,50.98
2022-07-25T10:58:07.787Z,50.66
2022-07-25T11:08:33.301Z,50.86
2022-07-25T11:18:54.936Z,53.39
2022-07-25T11:29:26.939Z,53.38
2022-07-25T11:39:48.819Z,53.24
2022-07-25T11:50:14.833Z,55.83
2022-07-25T12:00:41.670Z,56.91
2022-07-25T12:11:03.235Z,57.71
2022-07-25T12:21:24.933Z,55.91
2022-07-25T12:31:46.515Z,56.46
2022-07-25T12:42:08.100Z,55.11
2022-07-25T12:52:29.698Z,56.89
2022-07-25T13:02:53.168Z,58.19
2022-07-25T13:13:14.939Z,67.06
2022-07-25T13:23:36.803Z,66.74
2022-07-25T13:33:58.349Z,72.48
2022-07-25T13:44:20.742Z,76.52
2022-07-25T13:54:42.647Z,75.19
2022-07-25T14:05:04.967Z,73.33
2022-07-25T14:15:26.686Z,72.51
2022-07-25T14:25:48.299Z,73.46
2022-07-25T14:36:10.276Z,71.74
2022-07-25T14:46:31.977Z,68.74
2022-07-25T14:56:54.658Z,68.91
2022-07-25T15:07:16.221Z,67.18
2022-07-25T15:17:38.698Z,66.23
2022-07-25T15:28:00.331Z,66.58
2022-07-25T15:38:21.989Z,61.21
2022-07-25T15:48:44.725Z,61.98
2022-07-25T15:59:06.809Z,61.27
2022-07-25T16:09:28.415Z,60.36
2022-07-25T16:19:49.969Z,61.71
2022-07-25T16:30:12.141Z,61.79
2022-07-25T16:40:34.209Z,61.41
2022-07-25T16:50:55.880Z,60.46
2022-07-25T17:01:32.535Z,61.66
2022-07-25T17:11:54.131Z,62.75
2022-07-25T17:22:15.777Z,59.24
2022-07-25T17:32:37.365Z,58.44
2022-07-25T17:42:59.233Z,56.25
2022-07-25T17:53:20.831Z,55.51
2022-07-25T18:03:42.832Z,54.75
2022-07-25T18:14:04.645Z,54.91
2022-07-25T18:24:29.398Z,55.81
2022-07-25T18:34:51.154Z,57.71
2022-07-25T18:45:12.928Z,57.40
2022-07-25T18:55:35.240Z,57.79
2022-07-25T19:06:02.818Z,58.08
2022-07-25T19:16:25.194Z,58.87
2022-07-25T19:26:48.307Z,59.44
2022-07-25T19:37:10.258Z,60.13
2022-07-25T19:47:31.839Z,60.94
2022-07-25T19:57:53.511Z,61.23
2022-07-25T20:08:15.050Z,62.00
2022-07-25T20:18:36.595Z,62.95
2022-07-25T20:28:58.274Z,63.86
2022-07-25T20:39:19.912Z,65.03
2022-07-25T20:49:42.189Z,64.73
2022-07-25T21:00:04.874Z,65.57
2022-07-25T21:10:26.637Z,66.68
2022-07-25T21:20:48.927Z,67.76
2022-07-25T21:31:13.672Z,67.76
2022-07-25T21:41:35.223Z,68.66
2022-07-25T21:51:57.056Z,69.72
2022-07-25T22:02:19.529Z,70.00
2022-07-25T22:12:41.401Z,70.76
2022-07-25T22:23:03.612Z,72.35
2022-07-25T22:33:28.097Z,71.76
2022-07-25T22:43:58.118Z,73.23
2022-07-25T22:54:20.846Z,74.18
2022-07-25T23:04:42.405Z,74.13
2022-07-25T23:15:04.916Z,75.65
2022-07-25T23:25:26.450Z,76.03
2022-07-25T23:35:48.041Z,79.02
2022-07-25T23:46:09.548Z,79.40
2022-07-25T23:56:31.153Z,81.09
